createdAt,value
2019-02-05T00:01:00.341Z,15.15
2019-02-05T00:02:10.550Z,19.02
2019-02-05T00:03:20.708Z,19.05
2019-02-05T00:04:27.964Z,17.45
2019-02-05T00:05:34.676Z,19.37
2019-02-05T00:06:41.652Z,20.77
2019-02-05T00:07:48.487Z,18.48
2019-02-05T00:08:55.573Z,19.25
2019-02-05T00:10:02.698Z,19.95
2019-02-05T00:11:09.845Z,19.70
2019-02-05T00:12:16.529Z,19.12
2019-02-05T00:13:23.240Z,17.23
2019-02-05T00:14:30.302Z,21.35
2019-02-05T00:15:37.411Z,19.50
2019-02-05T00:16:44.644Z,20.10
2019-02-05T00:17:51.621Z,22.85
2019-02-05T00:18:58.279Z,20.57
2019-02-05T00:20:06.586Z,18.60
2019-02-05T00:21:13.632Z,19.45
2019-02-05T00:22:20.802Z,16.45
2019-02-05T00:23:27.572Z,18.25
2019-02-05T00:24:34.623Z,23.42
2019-02-05T00:25:41.879Z,19.62
2019-02-05T00:26:49.260Z,20.52
2019-02-05T00:27:56.961Z,22.95
2019-02-05T00:29:04.552Z,22.15
2019-02-05T00:30:12.725Z,23.50
2019-02-05T00:31:19.799Z,22.52
2019-02-05T00:32:26.812Z,23.90
2019-02-05T00:33:34.091Z,22.75
2019-02-05T00:34:40.790Z,27.62
2019-02-05T00:35:48.246Z,22.50
2019-02-05T00:36:54.915Z,19.67
2019-02-05T00:38:01.927Z,21.42
2019-02-05T00:39:10.401Z,26.27
2019-02-05T00:40:18.773Z,32.08
2019-02-05T00:41:25.501Z,23.98
2019-02-05T00:42:32.199Z,25.15
2019-02-05T00:43:39.268Z,21.77
2019-02-05T00:44:45.957Z,22.52
2019-02-05T00:45:52.969Z,27.25
2019-02-05T00:46:59.689Z,25.65
2019-02-05T00:48:06.711Z,25.08
2019-02-05T00:49:13.378Z,22.32
2019-02-05T00:50:20.397Z,24.70
2019-02-05T00:51:27.442Z,25.40
2019-02-05T00:52:34.111Z,26.00
2019-02-05T00:53:41.082Z,25.55
2019-02-05T00:54:48.057Z,21.37
2019-02-05T00:55:54.729Z,26.70
2019-02-05T00:57:01.430Z,26.62
2019-02-05T00:58:08.078Z,25.77
2019-02-05T00:59:16.173Z,24.25
2019-02-05T01:00:27.002Z,25.95
2019-02-05T01:01:34.105Z,28.38
2019-02-05T01:02:40.825Z,28.60
2019-02-05T01:03:48.498Z,24.18
2019-02-05T01:04:55.453Z,27.27
2019-02-05T01:06:02.506Z,24.52
2019-02-05T01:07:09.175Z,29.45
2019-02-05T01:08:15.912Z,28.12
2019-02-05T01:09:23.187Z,30.30
2019-02-05T01:10:30.211Z,25.00
2019-02-05T01:11:37.631Z,28.32
2019-02-05T01:12:44.533Z,29.92
2019-02-05T01:13:52.286Z,30.40
2019-02-05T01:14:59.313Z,29.07
2019-02-05T01:16:07.259Z,29.25
2019-02-05T01:17:14.367Z,28.47
2019-02-05T01:18:21.863Z,26.57
2019-02-05T01:19:28.537Z,30.15
2019-02-05T01:20:35.186Z,30.65
2019-02-05T01:21:41.829Z,27.75
2019-02-05T01:22:49.082Z,29.90
2019-02-05T01:23:56.031Z,29.57
2019-02-05T01:25:02.718Z,28.87
2019-02-05T01:26:09.426Z,38.17
2019-02-05T01:27:16.200Z,27.00
2019-02-05T01:28:23.431Z,28.75
2019-02-05T01:29:30.121Z,31.82
2019-02-05T01:30:36.814Z,27.98
2019-02-05T01:31:43.541Z,30.72
2019-02-05T01:32:51.118Z,35.15
2019-02-05T01:33:58.153Z,37.03
2019-02-05T01:35:05.708Z,33.92
2019-02-05T01:36:12.618Z,31.10
2019-02-05T01:37:19.329Z,32.13
2019-02-05T01:38:26.058Z,33.33
2019-02-05T01:39:32.800Z,31.35
2019-02-05T01:40:39.801Z,29.40
2019-02-05T01:41:46.916Z,25.70
2019-02-05T01:42:53.709Z,39.03
2019-02-05T01:44:00.419Z,34.65
2019-02-05T01:45:11.833Z,35.23
2019-02-05T01:46:19.085Z,37.42
2019-02-05T01:47:25.795Z,39.00
2019-02-05T01:48:32.503Z,32.50
2019-02-05T01:49:39.494Z,37.85
2019-02-05T01:50:48.670Z,36.35
2019-02-05T01:51:55.368Z,40.50
2019-02-05T01:53:02.708Z,39.40
2019-02-05T01:54:09.721Z,42.17
2019-02-05T01:55:17.279Z,30.72
2019-02-05T01:56:24.579Z,37.30
2019-02-05T01:57:31.604Z,37.40
2019-02-05T01:58:38.778Z,42.60
2019-02-05T01:59:45.796Z,46.98
2019-02-05T02:00:52.861Z,45.60
2019-02-05T02:02:00.222Z,51.33
2019-02-05T02:03:08.177Z,47.03
2019-02-05T02:04:14.902Z,45.28
2019-02-05T02:05:22.194Z,48.00
2019-02-05T02:06:29.456Z,49.18
2019-02-05T02:07:36.634Z,44.18
2019-02-05T02:08:43.345Z,54.58
2019-02-05T02:09:50.808Z,46.18
2019-02-05T02:10:57.518Z,45.35
2019-02-05T02:12:04.842Z,54.33
2019-02-05T02:13:11.782Z,50.65
2019-02-05T02:14:18.598Z,56.30
2019-02-05T02:15:25.911Z,55.35
2019-02-05T02:16:32.875Z,50.40
2019-02-05T02:17:39.929Z,60.45
2019-02-05T02:18:47.053Z,51.98
2019-02-05T02:19:53.788Z,54.58
2019-02-05T02:21:00.493Z,60.30
2019-02-05T02:22:07.286Z,56.70
2019-02-05T02:23:14.262Z,55.52
2019-02-05T02:24:20.940Z,62.65
2019-02-05T02:25:28.064Z,74.58
2019-02-05T02:26:35.134Z,73.37
2019-02-05T02:27:42.131Z,57.38
2019-02-05T02:28:48.805Z,62.50
2019-02-05T02:29:55.843Z,58.28
2019-02-05T02:31:02.964Z,64.65
2019-02-05T02:32:09.684Z,61.23
2019-02-05T02:33:16.535Z,65.25
2019-02-05T02:34:23.612Z,69.70
2019-02-05T02:35:30.301Z,63.80
2019-02-05T02:36:36.966Z,59.60
2019-02-05T02:37:44.118Z,79.97
2019-02-05T02:38:51.414Z,64.82
2019-02-05T02:39:58.409Z,64.85
2019-02-05T02:41:05.850Z,64.92
2019-02-05T02:42:12.882Z,65.50
2019-02-05T02:43:19.674Z,67.42
2019-02-05T02:44:26.489Z,69.65
2019-02-05T02:45:33.174Z,75.83
2019-02-05T02:46:39.846Z,71.37
2019-02-05T02:47:46.516Z,72.05
2019-02-05T02:48:53.166Z,70.32
2019-02-05T02:50:00.096Z,67.75
2019-02-05T02:51:07.255Z,70.70
2019-02-05T02:52:13.984Z,70.87
2019-02-05T02:53:20.663Z,82.47
2019-02-05T02:54:27.363Z,81.42
2019-02-05T02:55:34.135Z,71.87
2019-02-05T02:56:40.982Z,81.32
2019-02-05T02:57:48.621Z,78.55
2019-02-05T02:58:55.286Z,86.37
2019-02-05T03:00:01.984Z,81.63
2019-02-05T03:01:09.014Z,73.42
2019-02-05T03:02:15.745Z,79.25
2019-02-05T03:03:24.336Z,71.90
2019-02-05T03:04:31.818Z,78.17
2019-02-05T03:05:38.859Z,84.95
2019-02-05T03:06:45.583Z,72.90
2019-02-05T03:07:52.781Z,92.85
2019-02-05T03:08:59.496Z,86.05
2019-02-05T03:10:08.919Z,91.82
2019-02-05T03:11:15.899Z,90.38
2019-02-05T03:12:22.765Z,86.22
2019-02-05T03:13:29.534Z,111.00
2019-02-05T03:14:36.263Z,80.20
2019-02-05T03:15:43.313Z,85.62
2019-02-05T03:16:50.489Z,82.88
2019-02-05T03:17:57.218Z,94.45
2019-02-05T03:19:03.966Z,88.50
2019-02-05T03:20:11.883Z,99.97
2019-02-05T03:21:18.535Z,91.47
2019-02-05T03:22:25.607Z,84.30
2019-02-05T03:23:32.692Z,99.05
2019-02-05T03:24:40.951Z,84.90
2019-02-05T03:25:47.756Z,90.28
2019-02-05T03:26:54.811Z,100.72
2019-02-05T03:28:01.755Z,103.15
2019-02-05T03:29:08.407Z,96.25
2019-02-05T03:30:18.867Z,96.15
2019-02-05T03:31:26.141Z,108.37
2019-02-05T03:32:32.882Z,105.75
2019-02-05T03:33:39.901Z,93.65
2019-02-05T03:34:46.674Z,100.53
2019-02-05T03:35:53.376Z,100.62
2019-02-05T03:37:00.151Z,115.12
2019-02-05T03:38:07.058Z,99.47
2019-02-05T03:39:14.095Z,107.78
2019-02-05T03:41:09.118Z,109.70
2019-02-05T03:42:16.491Z,88.55
2019-02-05T03:43:23.434Z,109.00
2019-02-05T03:44:30.128Z,114.55
2019-02-05T03:45:36.809Z,109.85
2019-02-05T03:46:44.230Z,103.42
2019-02-05T03:47:52.594Z,103.83
2019-02-05T03:49:00.213Z,101.90
2019-02-05T03:50:07.803Z,88.40
2019-02-05T03:51:58.374Z,107.05
2019-02-05T03:53:06.558Z,107.00
2019-02-05T03:55:27.846Z,101.05
2019-02-05T03:57:31.133Z,98.90
2019-02-05T03:58:57.046Z,103.05
2019-02-05T04:00:31.698Z,96.40
2019-02-05T04:02:48.384Z,105.45
2019-02-05T04:04:35.546Z,118.47
2019-02-05T04:06:08.404Z,105.90
2019-02-05T04:07:47.971Z,99.07
2019-02-05T04:09:53.761Z,112.68
2019-02-05T04:12:10.450Z,133.43
2019-02-05T04:14:02.802Z,126.78
2019-02-05T04:15:41.071Z,117.42
2019-02-05T04:17:56.180Z,125.67
2019-02-05T04:20:08.144Z,125.50
2019-02-05T04:22:36.701Z,136.50
2019-02-05T04:24:14.089Z,114.30
2019-02-05T04:26:16.636Z,138.20
2019-02-05T04:28:07.090Z,137.85
2019-02-05T04:30:17.073Z,121.97
2019-02-05T04:32:15.195Z,138.92
2019-02-05T04:34:13.320Z,118.60
2019-02-05T04:36:22.486Z,144.82
2019-02-05T04:38:29.094Z,137.92
2019-02-05T04:40:23.463Z,134.07
2019-02-05T04:42:24.503Z,134.90
2019-02-05T04:44:20.886Z,158.35
2019-02-05T04:46:17.229Z,152.50
2019-02-05T04:48:11.644Z,140.12
2019-02-05T04:50:16.388Z,137.18
2019-02-05T04:52:08.118Z,132.35
2019-02-05T04:53:58.224Z,139.52
2019-02-05T04:55:47.975Z,144.85
2019-02-05T04:57:58.123Z,156.72
2019-02-05T05:00:29.230Z,157.97
2019-02-05T05:02:54.353Z,140.35
2019-02-05T05:05:12.141Z,162.03
2019-02-05T05:07:12.270Z,166.07
2019-02-05T05:09:05.654Z,134.63
2019-02-05T05:10:13.047Z,157.70
2019-02-05T05:11:20.147Z,130.15
2019-02-05T05:12:32.090Z,178.62
2019-02-05T05:13:38.801Z,176.15
2019-02-05T05:14:45.567Z,186.50
2019-02-05T05:15:52.272Z,153.97
2019-02-05T05:16:58.982Z,176.07
2019-02-05T05:18:05.693Z,174.05
2019-02-05T05:19:12.487Z,166.75
2019-02-05T05:20:19.860Z,174.02
2019-02-05T05:21:26.809Z,179.75
2019-02-05T05:22:34.475Z,161.88
2019-02-05T05:23:45.047Z,166.65
2019-02-05T05:24:51.697Z,164.15
2019-02-05T05:25:58.519Z,154.78
2019-02-05T05:27:07.155Z,177.30
2019-02-05T05:28:14.348Z,155.25
2019-02-05T05:29:21.439Z,189.25
2019-02-05T05:30:28.461Z,181.57
2019-02-05T05:31:35.270Z,163.92
2019-02-05T05:32:42.144Z,167.13
2019-02-05T05:33:49.119Z,186.00
2019-02-05T05:34:56.498Z,180.50
2019-02-05T05:36:03.248Z,187.43
2019-02-05T05:37:07.505Z,182.43
2019-02-05T05:38:14.158Z,175.15
2019-02-05T05:39:21.536Z,188.72
2019-02-05T05:40:28.229Z,193.07
2019-02-05T05:41:35.030Z,188.35
2019-02-05T05:42:42.051Z,197.87
2019-02-05T05:43:52.476Z,182.62
2019-02-05T05:44:59.135Z,210.53
2019-02-05T05:46:06.119Z,176.18
2019-02-05T05:47:13.245Z,175.03
2019-02-05T05:48:20.379Z,166.57
2019-02-05T05:49:27.502Z,193.15
2019-02-05T05:50:34.213Z,182.70
2019-02-05T05:51:41.247Z,213.75
2019-02-05T05:52:48.446Z,184.30
2019-02-05T05:53:55.206Z,185.97
2019-02-05T05:55:02.273Z,169.85
2019-02-05T05:56:09.221Z,197.10
2019-02-05T05:57:18.825Z,176.40
2019-02-05T05:58:25.390Z,164.43
2019-02-05T05:59:32.575Z,170.55
2019-02-05T06:00:40.152Z,133.03
2019-02-05T06:01:47.301Z,190.45
2019-02-05T06:02:54.349Z,207.07
2019-02-05T06:04:01.496Z,193.85
2019-02-05T06:05:08.983Z,190.35
2019-02-05T06:06:15.748Z,161.90
2019-02-05T06:07:22.838Z,193.45
2019-02-05T06:08:29.511Z,192.55
2019-02-05T06:09:36.677Z,161.97
2019-02-05T06:10:43.322Z,200.18
2019-02-05T06:11:50.443Z,182.30
2019-02-05T06:12:57.499Z,186.50
2019-02-05T06:14:04.176Z,188.78
2019-02-05T06:15:12.696Z,203.02
2019-02-05T06:16:19.571Z,190.30
2019-02-05T06:17:26.225Z,194.77
2019-02-05T06:18:33.289Z,195.28
2019-02-05T06:19:40.247Z,175.53
2019-02-05T06:20:47.132Z,192.80
2019-02-05T06:21:54.238Z,160.65
2019-02-05T06:23:01.345Z,173.32
2019-02-05T06:24:08.312Z,166.15
2019-02-05T06:25:15.653Z,193.47
2019-02-05T06:26:22.389Z,197.55
2019-02-05T06:27:29.083Z,192.40
2019-02-05T06:28:36.046Z,173.68
2019-02-05T06:29:42.779Z,181.72
2019-02-05T06:30:49.544Z,203.45
2019-02-05T06:31:57.016Z,186.73
2019-02-05T06:33:03.977Z,210.57
2019-02-05T06:34:11.028Z,191.70
2019-02-05T06:35:17.775Z,204.82
2019-02-05T06:36:24.460Z,202.18
2019-02-05T06:37:31.173Z,176.85
2019-02-05T06:38:38.257Z,172.47
2019-02-05T06:39:44.984Z,188.65
2019-02-05T06:40:51.811Z,177.15
2019-02-05T06:41:58.541Z,175.60
2019-02-05T06:43:05.651Z,182.55
2019-02-05T06:44:13.025Z,195.87
2019-02-05T06:45:19.813Z,195.15
2019-02-05T06:46:26.834Z,184.87
2019-02-05T06:47:33.898Z,172.28
2019-02-05T06:48:40.596Z,197.57
2019-02-05T06:49:47.669Z,177.10
2019-02-05T06:50:56.810Z,212.00
2019-02-05T06:52:02.904Z,201.98
2019-02-05T06:53:09.979Z,179.53
2019-02-05T06:54:16.770Z,195.32
2019-02-05T06:55:23.826Z,176.10
2019-02-05T06:56:30.872Z,182.72
2019-02-05T06:57:37.610Z,176.82
2019-02-05T06:58:46.556Z,189.50
2019-02-05T06:59:52.748Z,193.50
2019-02-05T07:00:59.771Z,173.28
2019-02-05T07:02:08.960Z,186.18
2019-02-05T07:03:15.974Z,195.95
2019-02-05T07:04:22.718Z,193.65
2019-02-05T07:05:29.507Z,213.43
2019-02-05T07:06:36.849Z,186.60
2019-02-05T07:07:43.865Z,198.13
2019-02-05T07:08:50.986Z,178.82
2019-02-05T07:09:58.591Z,179.00
2019-02-05T07:11:06.189Z,182.20
2019-02-05T07:12:13.670Z,218.60
2019-02-05T07:13:20.835Z,179.10
2019-02-05T07:14:27.910Z,182.02
2019-02-05T07:15:35.005Z,184.97
2019-02-05T07:16:41.788Z,168.82
2019-02-05T07:17:50.129Z,177.70
2019-02-05T07:18:57.190Z,170.50
2019-02-05T07:20:04.137Z,188.27
2019-02-05T07:21:10.886Z,212.72
2019-02-05T07:22:18.183Z,209.72
2019-02-05T07:23:25.972Z,192.98
2019-02-05T07:24:32.778Z,194.07
2019-02-05T07:25:39.844Z,195.12
2019-02-05T07:26:46.892Z,192.53
2019-02-05T07:27:53.659Z,182.00
2019-02-05T07:29:02.185Z,180.78
2019-02-05T07:30:16.982Z,189.60
2019-02-05T07:31:23.806Z,174.18
2019-02-05T07:32:30.691Z,171.45
2019-02-05T07:33:37.877Z,207.52
2019-02-05T07:34:44.648Z,200.75
2019-02-05T07:35:51.869Z,207.40
2019-02-05T07:36:58.621Z,199.93
2019-02-05T07:38:05.657Z,169.07
2019-02-05T07:39:12.757Z,208.30
2019-02-05T07:40:21.014Z,187.92
2019-02-05T07:41:27.927Z,159.25
2019-02-05T07:42:35.112Z,181.12
2019-02-05T07:43:41.980Z,175.50
2019-02-05T07:44:49.153Z,173.28
2019-02-05T07:45:56.778Z,199.27
2019-02-05T07:47:04.185Z,195.22
2019-02-05T07:48:11.033Z,197.20
2019-02-05T07:49:18.230Z,199.80
2019-02-05T07:50:26.977Z,190.15
2019-02-05T07:51:34.508Z,186.03
2019-02-05T07:52:41.273Z,174.70
2019-02-05T07:53:48.100Z,187.97
2019-02-05T07:54:54.960Z,199.85
2019-02-05T07:56:01.724Z,212.30
2019-02-05T07:57:08.886Z,202.70
2019-02-05T07:58:15.970Z,191.03
2019-02-05T07:59:22.756Z,197.00
2019-02-05T08:00:30.573Z,181.50
2019-02-05T08:01:37.392Z,190.30
2019-02-05T08:02:44.312Z,172.32
2019-02-05T08:03:51.299Z,205.92
2019-02-05T08:05:00.702Z,204.97
2019-02-05T08:06:07.336Z,188.90
2019-02-05T08:07:14.288Z,172.43
2019-02-05T08:08:21.602Z,182.57
2019-02-05T08:09:28.773Z,212.27
2019-02-05T08:10:36.080Z,220.97
2019-02-05T08:11:43.258Z,202.68
2019-02-05T08:12:50.195Z,207.87
2019-02-05T08:13:57.044Z,177.53
2019-02-05T08:15:04.281Z,186.03
2019-02-05T08:16:11.867Z,202.55
2019-02-05T08:17:19.134Z,194.77
2019-02-05T08:18:25.916Z,219.32
2019-02-05T08:19:32.726Z,205.67
2019-02-05T08:20:39.520Z,196.47
2019-02-05T08:21:46.450Z,191.62
2019-02-05T08:22:53.625Z,174.68
2019-02-05T08:24:00.478Z,205.87
2019-02-05T08:25:09.699Z,229.32
2019-02-05T08:26:16.817Z,193.95
2019-02-05T08:27:23.679Z,193.10
2019-02-05T08:28:40.547Z,166.90
2019-02-05T08:29:39.488Z,195.72
2019-02-05T08:30:49.088Z,182.93
2019-02-05T08:31:56.370Z,164.20
2019-02-05T08:33:03.307Z,177.93
2019-02-05T08:34:10.133Z,154.10
2019-02-05T08:35:18.409Z,171.02
2019-02-05T08:36:25.731Z,181.78
2019-02-05T08:37:32.457Z,172.25
2019-02-05T08:38:39.266Z,158.78
2019-02-05T08:39:46.074Z,170.45
2019-02-05T08:40:53.065Z,166.22
2019-02-05T08:41:59.814Z,169.13
2019-02-05T08:43:07.376Z,175.32
2019-02-05T08:44:14.114Z,184.48
2019-02-05T08:45:27.193Z,171.25
2019-02-05T08:46:34.525Z,174.27
2019-02-05T08:47:41.629Z,152.90
2019-02-05T08:48:48.398Z,194.32
2019-02-05T08:49:55.579Z,176.60
2019-02-05T08:51:02.726Z,172.55
2019-02-05T08:52:09.990Z,181.75
2019-02-05T08:53:17.225Z,183.07
2019-02-05T08:54:24.053Z,193.62
2019-02-05T08:55:31.074Z,164.30
2019-02-05T08:56:38.444Z,182.90
2019-02-05T08:57:45.851Z,177.40
2019-02-05T08:58:52.771Z,164.35
2019-02-05T08:59:59.571Z,169.62
2019-02-05T09:01:07.222Z,179.15
2019-02-05T09:02:14.377Z,151.80
2019-02-05T09:03:21.659Z,158.68
2019-02-05T09:04:28.473Z,159.52
2019-02-05T09:05:35.527Z,162.45
2019-02-05T09:06:42.259Z,177.45
2019-02-05T09:07:49.122Z,157.95
2019-02-05T09:08:56.216Z,161.00
2019-02-05T09:10:02.966Z,159.57
2019-02-05T09:11:09.793Z,166.65
2019-02-05T09:12:18.059Z,164.13
2019-02-05T09:13:25.025Z,165.68
2019-02-05T09:14:31.862Z,173.70
2019-02-05T09:15:38.590Z,152.43
2019-02-05T09:16:45.510Z,152.43
2019-02-05T09:17:53.136Z,151.40
2019-02-05T09:19:00.342Z,161.62
2019-02-05T09:20:10.096Z,154.85
2019-02-05T09:21:17.160Z,172.78
2019-02-05T09:22:24.245Z,153.87
2019-02-05T09:23:31.078Z,148.55
2019-02-05T09:24:37.958Z,154.00
2019-02-05T09:25:45.566Z,172.70
2019-02-05T09:26:53.360Z,179.63
2019-02-05T09:28:00.401Z,175.30
2019-02-05T09:29:07.804Z,160.18
2019-02-05T09:30:19.089Z,157.90
2019-02-05T09:31:26.198Z,168.90
2019-02-05T09:32:35.117Z,166.92
2019-02-05T09:33:41.518Z,170.82
2019-02-05T09:34:48.245Z,181.05
2019-02-05T09:35:55.985Z,183.40
2019-02-05T09:37:03.017Z,154.05
2019-02-05T09:38:09.860Z,170.90
2019-02-05T09:39:16.731Z,165.65
2019-02-05T09:40:27.872Z,174.93
2019-02-05T09:41:34.659Z,173.95
2019-02-05T09:42:42.007Z,174.23
2019-02-05T09:43:49.452Z,162.62
2019-02-05T09:44:56.323Z,178.42
2019-02-05T09:46:03.921Z,156.32
2019-02-05T09:47:10.760Z,163.05
2019-02-05T09:48:17.525Z,130.72
2019-02-05T09:49:24.763Z,155.00
2019-02-05T09:50:43.818Z,148.72
2019-02-05T09:51:40.517Z,166.75
2019-02-05T09:52:47.354Z,176.65
2019-02-05T09:53:54.502Z,171.32
2019-02-05T09:55:01.355Z,171.30
2019-02-05T09:56:08.549Z,191.57
2019-02-05T09:57:15.379Z,165.68
2019-02-05T09:58:22.268Z,146.82
2019-02-05T09:59:29.555Z,159.03
2019-02-05T10:00:39.919Z,155.87
2019-02-05T10:01:46.694Z,155.50
2019-02-05T10:02:53.873Z,184.65
2019-02-05T10:04:01.220Z,151.15
2019-02-05T10:05:10.622Z,155.12
2019-02-05T10:06:17.384Z,189.35
2019-02-05T10:07:24.517Z,155.43
2019-02-05T10:08:31.517Z,157.07
2019-02-05T10:09:39.501Z,152.15
2019-02-05T10:10:46.333Z,144.80
2019-02-05T10:11:53.175Z,137.60
2019-02-05T10:13:00.483Z,171.70
2019-02-05T10:14:07.517Z,140.43
2019-02-05T10:15:24.236Z,150.03
2019-02-05T10:16:31.020Z,162.25
2019-02-05T10:17:38.295Z,140.12
2019-02-05T10:18:46.044Z,137.40
2019-02-05T10:19:53.004Z,129.70
2019-02-05T10:21:00.001Z,130.67
2019-02-05T10:22:06.980Z,131.83
2019-02-05T10:23:13.743Z,144.73
2019-02-05T10:24:20.575Z,146.22
2019-02-05T10:25:27.753Z,114.72
2019-02-05T10:26:34.914Z,124.87
2019-02-05T10:27:41.760Z,126.00
2019-02-05T10:28:49.022Z,121.77
2019-02-05T10:29:59.465Z,129.13
2019-02-05T10:31:04.362Z,129.87
2019-02-05T10:32:11.429Z,122.00
2019-02-05T10:33:18.181Z,105.63
2019-02-05T10:34:33.849Z,100.53
2019-02-05T10:35:34.115Z,111.95
2019-02-05T10:36:40.936Z,106.03
2019-02-05T10:37:48.782Z,117.20
2019-02-05T10:38:55.959Z,104.07
2019-02-05T10:40:02.793Z,103.77
2019-02-05T10:41:09.623Z,101.97
2019-02-05T10:42:16.464Z,108.90
2019-02-05T10:43:23.448Z,109.65
2019-02-05T10:44:30.273Z,103.47
2019-02-05T10:45:38.127Z,113.03
2019-02-05T10:46:45.184Z,120.08
2019-02-05T10:47:52.736Z,104.10
2019-02-05T10:48:59.889Z,117.70
2019-02-05T10:50:10.819Z,101.58
2019-02-05T10:51:18.077Z,108.47
2019-02-05T10:52:24.821Z,110.60
2019-02-05T10:53:31.952Z,108.30
2019-02-05T10:54:38.775Z,103.58
2019-02-05T10:55:45.524Z,99.77
2019-02-05T10:56:52.362Z,109.17
2019-02-05T10:57:59.666Z,96.63
2019-02-05T10:59:07.025Z,98.15
2019-02-05T11:00:21.703Z,115.85
2019-02-05T11:01:28.452Z,123.42
2019-02-05T11:02:35.647Z,102.30
2019-02-05T11:03:42.472Z,123.20
2019-02-05T11:04:49.694Z,110.83
2019-02-05T11:05:56.796Z,101.85
2019-02-05T11:07:03.869Z,103.70
2019-02-05T11:08:11.292Z,102.10
2019-02-05T11:09:18.159Z,104.80
2019-02-05T11:10:25.082Z,101.97
2019-02-05T11:11:31.855Z,102.40
2019-02-05T11:12:38.672Z,99.90
2019-02-05T11:13:45.519Z,98.90
2019-02-05T11:14:52.344Z,96.97
2019-02-05T11:15:59.246Z,100.83
2019-02-05T11:17:06.937Z,96.57
2019-02-05T11:18:13.882Z,103.92
2019-02-05T11:19:20.701Z,96.37
2019-02-05T11:20:28.874Z,91.90
2019-02-05T11:21:36.210Z,88.27
2019-02-05T11:22:43.063Z,92.00
2019-02-05T11:23:49.944Z,89.62
2019-02-05T11:24:57.419Z,81.70
2019-02-05T11:26:04.675Z,89.30
2019-02-05T11:27:11.817Z,88.25
2019-02-05T11:28:18.747Z,84.30
2019-02-05T11:29:25.990Z,85.53
2019-02-05T11:30:36.730Z,97.88
2019-02-05T11:31:43.784Z,83.07
2019-02-05T11:32:52.914Z,102.90
2019-02-05T11:33:59.563Z,89.07
2019-02-05T11:35:08.590Z,97.37
2019-02-05T11:36:15.730Z,75.50
2019-02-05T11:37:22.600Z,78.78
2019-02-05T11:38:29.355Z,87.60
2019-02-05T11:39:36.500Z,85.65
2019-02-05T11:40:43.840Z,75.33
2019-02-05T11:41:51.069Z,76.95
2019-02-05T11:42:58.146Z,75.78
2019-02-05T11:44:05.200Z,84.92
2019-02-05T11:45:14.390Z,90.70
2019-02-05T11:46:21.252Z,75.80
2019-02-05T11:47:28.340Z,76.87
2019-02-05T11:48:35.138Z,82.82
2019-02-05T11:49:42.398Z,68.97
2019-02-05T11:50:49.428Z,65.97
2019-02-05T11:51:56.230Z,78.90
2019-02-05T11:53:03.447Z,65.43
2019-02-05T11:54:10.683Z,76.97
2019-02-05T11:55:20.455Z,81.42
2019-02-05T11:56:27.588Z,58.68
2019-02-05T11:57:34.412Z,71.07
2019-02-05T11:58:41.316Z,75.10
2019-02-05T11:59:48.450Z,84.40
2019-02-05T12:01:01.735Z,69.55
2019-02-05T12:02:08.548Z,61.13
2019-02-05T12:03:16.124Z,72.60
2019-02-05T12:04:23.068Z,68.15
2019-02-05T12:05:29.994Z,70.42
2019-02-05T12:06:37.639Z,61.02
2019-02-05T12:07:45.130Z,68.22
2019-02-05T12:08:52.420Z,70.90
2019-02-05T12:09:59.602Z,63.30
2019-02-05T12:11:06.451Z,60.98
2019-02-05T12:12:13.284Z,78.78
2019-02-05T12:13:22.347Z,67.35
2019-02-05T12:14:28.839Z,61.92
2019-02-05T12:15:35.768Z,65.30
2019-02-05T12:16:42.584Z,72.67
2019-02-05T12:17:49.645Z,68.33
2019-02-05T12:18:56.830Z,63.87
2019-02-05T12:20:04.312Z,65.43
2019-02-05T12:21:11.907Z,63.67
2019-02-05T12:22:19.097Z,64.22
2019-02-05T12:23:26.589Z,66.40
2019-02-05T12:24:33.471Z,63.95
2019-02-05T12:25:40.531Z,71.12
2019-02-05T12:26:47.615Z,69.70
2019-02-05T12:27:54.581Z,58.93
2019-02-05T12:29:01.453Z,62.00
2019-02-05T12:30:15.479Z,60.10
2019-02-05T12:31:22.373Z,61.53
2019-02-05T12:32:29.350Z,59.33
2019-02-05T12:33:36.337Z,56.42
2019-02-05T12:34:43.605Z,67.00
2019-02-05T12:35:50.686Z,55.08
2019-02-05T12:36:57.674Z,57.45
2019-02-05T12:38:05.349Z,60.38
2019-02-05T12:39:20.383Z,69.55
2019-02-05T12:40:27.703Z,61.83
2019-02-05T12:41:35.393Z,65.40
2019-02-05T12:42:42.264Z,59.40
2019-02-05T12:43:49.454Z,63.87
2019-02-05T12:44:56.416Z,64.15
2019-02-05T12:46:03.520Z,64.45
2019-02-05T12:47:10.372Z,64.03
2019-02-05T12:48:17.557Z,64.58
2019-02-05T12:49:24.738Z,48.50
2019-02-05T12:50:34.469Z,55.48
2019-02-05T12:51:41.658Z,57.70
2019-02-05T12:52:49.335Z,59.03
2019-02-05T12:53:56.165Z,62.33
2019-02-05T12:55:13.438Z,57.13
2019-02-05T12:56:12.830Z,59.42
2019-02-05T12:57:19.914Z,59.33
2019-02-05T12:58:27.211Z,85.40
2019-02-05T12:59:34.064Z,64.10
2019-02-05T13:00:56.514Z,51.28
2019-02-05T13:01:56.415Z,59.00
2019-02-05T13:03:03.602Z,51.90
2019-02-05T13:04:10.891Z,57.83
2019-02-05T13:05:18.989Z,75.55
2019-02-05T13:06:26.061Z,59.25
2019-02-05T13:07:33.349Z,61.63
2019-02-05T13:08:40.728Z,60.70
2019-02-05T13:09:47.614Z,66.37
2019-02-05T13:10:55.007Z,67.42
2019-02-05T13:12:02.290Z,52.37
2019-02-05T13:13:11.040Z,60.67
2019-02-05T13:14:17.965Z,54.67
2019-02-05T13:15:25.050Z,54.43
2019-02-05T13:16:32.020Z,47.93
2019-02-05T13:17:39.196Z,53.17
2019-02-05T13:18:46.508Z,56.50
2019-02-05T13:19:53.367Z,52.83
2019-02-05T13:21:00.329Z,58.02
2019-02-05T13:22:07.618Z,60.40
2019-02-05T13:23:14.954Z,57.62
2019-02-05T13:24:21.876Z,56.65
2019-02-05T13:25:30.079Z,52.38
2019-02-05T13:26:37.359Z,61.25
2019-02-05T13:27:44.230Z,50.33
2019-02-05T13:28:51.519Z,57.13
2019-02-05T13:29:58.799Z,56.90
2019-02-05T13:31:08.041Z,57.40
2019-02-05T13:32:14.705Z,54.20
2019-02-05T13:33:23.317Z,55.43
2019-02-05T13:34:30.601Z,61.95
2019-02-05T13:35:37.891Z,54.00
2019-02-05T13:36:44.848Z,51.30
2019-02-05T13:37:52.441Z,59.23
2019-02-05T13:38:59.314Z,57.00
2019-02-05T13:40:09.009Z,56.70
2019-02-05T13:41:15.938Z,62.17
2019-02-05T13:42:22.910Z,59.42
2019-02-05T13:43:29.882Z,63.13
2019-02-05T13:44:36.750Z,62.08
2019-02-05T13:45:44.412Z,64.07
2019-02-05T13:46:51.628Z,55.40
2019-02-05T13:47:59.350Z,59.00
2019-02-05T13:49:07.334Z,60.43
2019-02-05T13:50:32.964Z,54.15
2019-02-05T13:51:36.016Z,57.27
2019-02-05T13:52:43.298Z,48.10
2019-02-05T13:53:50.275Z,46.87
2019-02-05T13:54:57.553Z,56.97
2019-02-05T13:56:05.417Z,51.30
2019-02-05T13:57:12.938Z,52.60
2019-02-05T13:58:20.139Z,46.03
2019-02-05T13:59:27.809Z,53.50
2019-02-05T14:00:41.604Z,51.13
2019-02-05T14:01:49.148Z,45.27
2019-02-05T14:02:56.731Z,46.03
2019-02-05T14:04:04.427Z,49.50
2019-02-05T14:05:12.544Z,55.73
2019-02-05T14:06:20.120Z,47.00
2019-02-05T14:07:26.993Z,68.93
2019-02-05T14:08:34.185Z,51.43
2019-02-05T14:09:41.117Z,50.35
2019-02-05T14:10:49.041Z,60.47
2019-02-05T14:11:55.928Z,49.55
2019-02-05T14:13:03.203Z,47.13
2019-02-05T14:14:10.175Z,51.43
2019-02-05T14:15:19.727Z,51.70
2019-02-05T14:16:27.213Z,53.45
2019-02-05T14:17:34.485Z,52.90
2019-02-05T14:18:42.176Z,63.80
2019-02-05T14:19:49.462Z,60.63
2019-02-05T14:20:56.337Z,59.40
2019-02-05T14:22:03.620Z,53.70
2019-02-05T14:23:11.007Z,66.80
2019-02-05T14:24:18.185Z,55.00
2019-02-05T14:25:25.474Z,58.40
2019-02-05T14:26:32.453Z,57.90
2019-02-05T14:27:39.523Z,58.70
2019-02-05T14:28:46.712Z,59.90
2019-02-05T14:29:53.886Z,59.67
2019-02-05T14:31:00.964Z,51.67
2019-02-05T14:32:08.036Z,58.20
2019-02-05T14:33:15.361Z,56.90
2019-02-05T14:34:22.610Z,62.50
2019-02-05T14:35:29.998Z,57.93
2019-02-05T14:36:36.870Z,53.83
2019-02-05T14:37:44.054Z,60.83
2019-02-05T14:38:51.228Z,62.60
2019-02-05T14:39:58.106Z,75.00
2019-02-05T14:41:05.616Z,60.60
2019-02-05T14:42:12.878Z,57.05
2019-02-05T14:43:19.860Z,56.40
2019-02-05T14:44:26.828Z,53.98
2019-02-05T14:45:33.909Z,61.70
2019-02-05T14:46:41.084Z,61.53
2019-02-05T14:47:48.638Z,54.05
2019-02-05T14:48:56.062Z,64.05